createdAt,value
2023-03-29T00:25:19.614Z,8.70
2023-03-29T00:27:46.943Z,8.70
2023-03-29T00:30:14.908Z,8.70
2023-03-29T00:32:42.704Z,8.80
2023-03-29T00:35:10.895Z,8.80
2023-03-29T00:37:38.239Z,8.80
2023-03-29T00:40:10.992Z,8.80
2023-03-29T00:42:38.316Z,8.80
2023-03-29T00:45:25.567Z,8.80
2023-03-29T00:47:59.947Z,8.80
2023-03-29T00:50:39.449Z,8.80
2023-03-29T00:53:14.716Z,8.80
2023-03-29T00:55:49.688Z,8.70
2023-03-29T00:58:22.837Z,8.70
2023-03-29T01:01:04.533Z,8.70
2023-03-29T01:03:37.819Z,8.80
2023-03-29T01:06:08.550Z,8.80
2023-03-29T01:08:43.616Z,8.70
2023-03-29T01:11:34.893Z,8.70
2023-03-29T01:14:03.871Z,8.70
2023-03-29T01:16:33.151Z,8.70
2023-03-29T01:19:02.207Z,8.70
2023-03-29T01:21:44.760Z,8.70
2023-03-29T01:24:33.879Z,8.70
2023-03-29T01:27:19.361Z,8.70
2023-03-29T01:29:54.016Z,8.70
2023-03-29T01:32:27.834Z,8.70
2023-03-29T01:35:01.596Z,8.80
2023-03-29T01:37:38.078Z,8.80
2023-03-29T01:40:06.306Z,8.80
2023-03-29T01:43:05.144Z,8.80
2023-03-29T01:46:01.153Z,8.80
2023-03-29T01:48:37.725Z,8.80
2023-03-29T01:51:14.443Z,8.80
2023-03-29T01:53:51.084Z,8.80
2023-03-29T01:56:22.908Z,8.80
2023-03-29T01:58:54.299Z,8.80
2023-03-29T02:01:29.915Z,8.90
2023-03-29T02:04:02.891Z,8.90
2023-03-29T02:06:34.642Z,9.00
2023-03-29T02:09:04.740Z,8.90
2023-03-29T02:11:32.142Z,8.90
2023-03-29T02:14:02.222Z,8.90
2023-03-29T02:16:37.834Z,8.90
2023-03-29T02:19:07.834Z,8.90
2023-03-29T02:21:44.227Z,8.90
2023-03-29T02:24:13.361Z,9.00
2023-03-29T02:26:40.716Z,9.00
2023-03-29T02:29:08.282Z,9.10
2023-03-29T02:31:56.788Z,9.10
2023-03-29T02:34:33.089Z,9.20
2023-03-29T02:37:03.808Z,9.10
2023-03-29T02:39:33.635Z,9.20
2023-03-29T02:42:02.832Z,9.20
2023-03-29T02:44:33.207Z,9.20
2023-03-29T02:47:23.261Z,9.20
2023-03-29T02:49:50.994Z,9.30
2023-03-29T02:52:23.681Z,9.30
2023-03-29T02:54:54.401Z,9.30
2023-03-29T02:57:28.669Z,9.30
2023-03-29T02:59:58.081Z,9.30
2023-03-29T03:02:29.650Z,9.30
2023-03-29T03:04:57.668Z,9.30
2023-03-29T03:07:24.961Z,9.30
2023-03-29T03:09:52.654Z,9.40
2023-03-29T03:12:19.928Z,9.40
2023-03-29T03:14:47.246Z,9.40
2023-03-29T03:17:14.537Z,9.40
2023-03-29T03:19:42.088Z,9.40
2023-03-29T03:22:11.550Z,9.40
2023-03-29T03:24:38.783Z,9.40
2023-03-29T03:27:06.262Z,9.40
2023-03-29T03:29:33.515Z,9.50
2023-03-29T03:32:09.857Z,9.50
2023-03-29T03:34:54.867Z,9.50
2023-03-29T03:37:25.186Z,9.40
2023-03-29T03:39:52.505Z,9.50
2023-03-29T03:42:20.738Z,9.50
2023-03-29T03:44:49.761Z,9.50
2023-03-29T03:47:37.786Z,9.50
2023-03-29T03:50:19.304Z,9.50
2023-03-29T03:52:46.944Z,9.50
2023-03-29T03:55:14.658Z,9.50
2023-03-29T03:58:02.199Z,9.50
2023-03-29T04:00:29.614Z,9.50
2023-03-29T04:03:14.069Z,9.60
2023-03-29T04:05:43.423Z,9.50
2023-03-29T04:08:12.952Z,9.60
2023-03-29T04:10:59.693Z,9.60
2023-03-29T04:13:34.322Z,9.60
2023-03-29T04:16:21.826Z,9.70
2023-03-29T04:18:49.818Z,9.60
2023-03-29T04:21:18.326Z,9.60
2023-03-29T04:23:48.006Z,9.70
2023-03-29T04:26:17.669Z,9.60
2023-03-29T04:28:57.057Z,9.60
2023-03-29T04:31:34.237Z,9.60
2023-03-29T04:34:20.685Z,9.70
2023-03-29T04:36:50.308Z,9.70
2023-03-29T04:39:21.734Z,9.70
2023-03-29T04:41:54.286Z,9.70
2023-03-29T04:44:26.725Z,9.70
2023-03-29T04:46:54.211Z,9.70
2023-03-29T04:49:47.668Z,9.70
2023-03-29T04:52:24.477Z,9.70
2023-03-29T04:54:52.604Z,9.70
2023-03-29T04:57:39.726Z,9.70
2023-03-29T05:00:31.561Z,9.70
2023-03-29T05:03:17.224Z,9.70
2023-03-29T05:05:53.933Z,9.70
2023-03-29T05:08:21.661Z,9.70
2023-03-29T05:11:25.391Z,9.70
2023-03-29T05:13:55.526Z,9.70
2023-03-29T05:16:24.405Z,9.70
2023-03-29T05:18:52.142Z,9.80
2023-03-29T05:21:20.557Z,9.70
2023-03-29T05:23:47.941Z,9.80
2023-03-29T05:26:17.990Z,9.80
2023-03-29T05:28:50.717Z,9.70
2023-03-29T05:31:18.571Z,9.80
2023-03-29T05:33:49.671Z,9.80
2023-03-29T05:36:19.081Z,9.90
2023-03-29T05:38:49.917Z,9.80
2023-03-29T05:41:18.784Z,9.90
2023-03-29T05:44:06.594Z,9.90
2023-03-29T05:46:34.195Z,9.90
2023-03-29T05:49:04.184Z,10.00
2023-03-29T05:51:52.268Z,10.10
2023-03-29T05:54:19.458Z,10.10
2023-03-29T05:56:46.737Z,10.10
2023-03-29T05:59:15.303Z,10.10
2023-03-29T06:01:46.925Z,10.10
2023-03-29T06:04:15.787Z,10.20
2023-03-29T06:06:53.199Z,10.30
2023-03-29T06:09:20.491Z,10.30
2023-03-29T06:11:57.472Z,10.30
2023-03-29T06:14:32.561Z,10.30
2023-03-29T06:17:10.708Z,10.30
2023-03-29T06:19:38.152Z,10.40
2023-03-29T06:22:05.690Z,10.40
2023-03-29T06:24:34.672Z,10.50
2023-03-29T06:27:07.771Z,10.60
2023-03-29T06:29:35.791Z,10.60
2023-03-29T06:32:03.269Z,10.70
2023-03-29T06:34:47.594Z,10.80
2023-03-29T06:37:32.562Z,10.80
2023-03-29T06:40:13.209Z,10.90
2023-03-29T06:42:43.447Z,10.90
2023-03-29T06:45:49.154Z,11.00
2023-03-29T06:48:26.758Z,11.10
2023-03-29T06:50:54.575Z,11.10
2023-03-29T06:53:26.274Z,11.10
2023-03-29T06:55:59.627Z,11.20
2023-03-29T06:58:40.731Z,11.30
2023-03-29T07:01:29.040Z,11.30
2023-03-29T07:04:08.120Z,11.50
2023-03-29T07:06:51.153Z,11.50
2023-03-29T07:09:19.596Z,11.70
2023-03-29T07:12:26.399Z,11.70
2023-03-29T07:14:58.456Z,11.70
2023-03-29T07:17:36.968Z,11.80
2023-03-29T07:20:08.770Z,11.80
2023-03-29T07:22:47.176Z,11.90
2023-03-29T07:25:17.162Z,12.00
2023-03-29T07:27:45.675Z,12.10
2023-03-29T07:30:16.903Z,12.10
2023-03-29T07:32:46.461Z,12.20
2023-03-29T07:35:28.485Z,12.20
2023-03-29T07:37:56.239Z,12.30
2023-03-29T07:40:26.035Z,12.30
2023-03-29T07:42:57.166Z,12.30
2023-03-29T07:45:29.053Z,12.50
2023-03-29T07:48:01.166Z,12.50
2023-03-29T07:50:39.625Z,12.50
2023-03-29T07:53:09.091Z,12.50
2023-03-29T07:55:36.553Z,12.60
2023-03-29T07:58:17.515Z,12.60
2023-03-29T08:00:44.797Z,12.70
2023-03-29T08:03:32.168Z,12.80
2023-03-29T08:06:02.961Z,12.90
2023-03-29T08:08:30.414Z,13.00
2023-03-29T08:11:02.805Z,13.00
2023-03-29T08:13:38.905Z,13.10
2023-03-29T08:16:24.797Z,13.30
2023-03-29T08:18:59.895Z,13.40
2023-03-29T08:21:41.349Z,13.50
2023-03-29T08:24:09.276Z,13.50
2023-03-29T08:26:43.390Z,13.60
2023-03-29T08:29:11.857Z,13.90
2023-03-29T08:31:39.171Z,14.20
2023-03-29T08:34:06.968Z,14.30
2023-03-29T08:36:49.375Z,14.30
2023-03-29T08:39:29.956Z,14.50
2023-03-29T08:42:34.825Z,14.60
2023-03-29T08:45:27.405Z,14.80
2023-03-29T08:48:18.590Z,15.20
2023-03-29T08:50:52.516Z,15.50
2023-03-29T08:53:37.979Z,15.60
2023-03-29T08:56:25.165Z,15.40
2023-03-29T08:59:20.344Z,15.10
2023-03-29T09:01:51.504Z,15.20
2023-03-29T09:04:27.429Z,15.20
2023-03-29T09:07:21.228Z,15.10
2023-03-29T09:09:48.639Z,14.80
2023-03-29T09:12:56.780Z,14.70
2023-03-29T09:16:03.571Z,14.80
2023-03-29T09:18:38.401Z,14.90
2023-03-29T09:21:30.186Z,15.00
2023-03-29T09:24:28.803Z,15.10
2023-03-29T09:27:10.677Z,15.30
2023-03-29T09:30:00.617Z,15.50
2023-03-29T09:32:53.799Z,15.70
2023-03-29T09:35:34.385Z,15.90
2023-03-29T09:38:04.331Z,16.00
2023-03-29T09:40:39.737Z,16.10
2023-03-29T09:43:18.363Z,16.20
2023-03-29T09:45:53.059Z,16.40
2023-03-29T09:48:21.441Z,16.40
2023-03-29T09:50:57.492Z,16.40
2023-03-29T09:53:24.916Z,16.20
2023-03-29T09:56:01.948Z,16.10
2023-03-29T09:58:51.323Z,15.80
2023-03-29T10:01:20.210Z,15.60
2023-03-29T10:03:53.870Z,15.50
2023-03-29T10:06:25.405Z,15.60
2023-03-29T10:08:58.910Z,15.80
2023-03-29T10:11:35.538Z,16.10
2023-03-29T10:14:12.620Z,16.50
2023-03-29T10:16:42.449Z,16.70
2023-03-29T10:19:22.430Z,16.70
2023-03-29T10:21:52.835Z,16.80
2023-03-29T10:24:22.130Z,16.90
2023-03-29T10:26:55.485Z,17.00
2023-03-29T10:29:27.694Z,16.90
2023-03-29T10:31:55.246Z,17.00
2023-03-29T10:34:26.012Z,16.90
2023-03-29T10:37:01.989Z,16.60
2023-03-29T10:39:34.352Z,16.20
2023-03-29T10:42:04.159Z,15.80
2023-03-29T10:44:34.207Z,15.70
2023-03-29T10:47:16.772Z,15.70
2023-03-29T10:49:57.146Z,15.70
2023-03-29T10:52:25.720Z,15.70
2023-03-29T10:54:55.311Z,15.80
2023-03-29T10:57:42.966Z,16.00
2023-03-29T11:00:21.937Z,16.00
2023-03-29T11:03:07.949Z,16.00
2023-03-29T11:05:42.532Z,15.90
2023-03-29T11:08:20.716Z,15.90
2023-03-29T11:11:17.684Z,16.00
2023-03-29T11:14:26.132Z,16.20
2023-03-29T11:17:25.300Z,16.30
2023-03-29T11:20:19.453Z,16.30
2023-03-29T11:22:55.283Z,16.20
2023-03-29T11:25:22.598Z,16.10
2023-03-29T11:28:10.401Z,16.00
2023-03-29T11:30:47.535Z,15.90
2023-03-29T11:33:33.562Z,15.70
2023-03-29T11:36:38.956Z,15.50
2023-03-29T11:39:31.535Z,15.40
2023-03-29T11:42:20.130Z,15.40
2023-03-29T11:44:51.616Z,15.40
2023-03-29T11:47:27.561Z,15.50
2023-03-29T11:50:03.347Z,15.70
2023-03-29T11:52:36.652Z,16.00
2023-03-29T11:55:12.193Z,16.10
2023-03-29T11:57:56.839Z,16.20
2023-03-29T12:00:40.438Z,16.20
2023-03-29T12:03:41.879Z,16.20
2023-03-29T12:06:20.265Z,16.20
2023-03-29T12:09:24.021Z,16.30
2023-03-29T12:12:02.942Z,16.50
2023-03-29T12:15:07.330Z,16.20
2023-03-29T12:17:41.884Z,15.80
2023-03-29T12:20:31.615Z,15.70
2023-03-29T12:23:01.148Z,15.90
2023-03-29T12:25:40.328Z,16.20
2023-03-29T12:28:15.004Z,16.10
2023-03-29T12:30:57.660Z,15.90
2023-03-29T12:33:39.027Z,15.80
2023-03-29T12:36:53.843Z,15.70
2023-03-29T12:39:44.207Z,15.80
2023-03-29T12:42:31.650Z,15.80
2023-03-29T12:45:21.987Z,15.70
2023-03-29T12:47:51.360Z,15.70
2023-03-29T12:50:34.467Z,15.80
2023-03-29T12:53:18.123Z,15.80
2023-03-29T12:56:11.650Z,15.90
2023-03-29T12:58:39.118Z,15.90
2023-03-29T13:01:06.734Z,15.80
2023-03-29T13:03:39.987Z,15.80
2023-03-29T13:06:11.039Z,15.70
2023-03-29T13:08:45.592Z,15.50
2023-03-29T13:11:34.469Z,15.30
2023-03-29T13:14:09.241Z,15.30
2023-03-29T13:16:36.933Z,15.30
2023-03-29T13:19:18.646Z,15.30
2023-03-29T13:21:59.770Z,15.20
2023-03-29T13:25:02.198Z,15.10
2023-03-29T13:27:44.387Z,15.10
2023-03-29T13:30:41.044Z,15.40
2023-03-29T13:33:17.368Z,15.40
2023-03-29T13:35:53.875Z,15.50
2023-03-29T13:38:23.008Z,15.50
2023-03-29T13:40:53.110Z,15.50
2023-03-29T13:43:30.858Z,15.40
2023-03-29T13:45:58.078Z,15.30
2023-03-29T13:48:27.231Z,15.40
2023-03-29T13:51:07.813Z,15.50
2023-03-29T13:53:58.020Z,15.60
2023-03-29T13:56:34.382Z,15.50
2023-03-29T13:59:19.642Z,15.50
2023-03-29T14:01:53.398Z,15.40
2023-03-29T14:04:41.864Z,15.50
2023-03-29T14:07:13.713Z,15.60
2023-03-29T14:09:45.156Z,15.70
2023-03-29T14:12:14.623Z,15.70
2023-03-29T14:14:57.753Z,15.60
2023-03-29T14:17:26.987Z,15.40
2023-03-29T14:19:58.514Z,15.40
2023-03-29T14:22:31.173Z,15.40
2023-03-29T14:25:05.682Z,15.60
2023-03-29T14:27:37.025Z,15.70
2023-03-29T14:30:35.686Z,15.80
2023-03-29T14:33:05.093Z,15.80
2023-03-29T14:35:33.297Z,16.00
2023-03-29T14:38:01.574Z,16.20
2023-03-29T14:40:30.822Z,16.30
2023-03-29T14:43:00.564Z,16.40
2023-03-29T14:45:27.940Z,16.40
2023-03-29T14:47:55.676Z,16.40
2023-03-29T14:50:29.247Z,16.30
2023-03-29T14:53:01.441Z,16.10
2023-03-29T14:55:28.910Z,16.10
2023-03-29T14:57:56.413Z,16.00
2023-03-29T15:00:39.068Z,16.00
2023-03-29T15:03:14.530Z,15.90
2023-03-29T15:05:53.236Z,15.80
2023-03-29T15:08:37.655Z,15.80
2023-03-29T15:11:27.288Z,15.90
2023-03-29T15:14:15.857Z,16.10
2023-03-29T15:16:46.863Z,16.20
2023-03-29T15:19:20.685Z,16.30
2023-03-29T15:21:50.059Z,16.40
2023-03-29T15:24:20.210Z,16.40
2023-03-29T15:27:11.105Z,16.40
2023-03-29T15:29:45.279Z,16.40
2023-03-29T15:32:37.104Z,16.50
2023-03-29T15:35:20.158Z,16.70
2023-03-29T15:37:47.558Z,16.80
2023-03-29T15:40:22.347Z,16.80
2023-03-29T15:42:50.299Z,16.60
2023-03-29T15:45:18.628Z,16.60
2023-03-29T15:47:46.617Z,16.50
2023-03-29T15:50:15.584Z,16.30
2023-03-29T15:52:42.864Z,16.30
2023-03-29T15:55:10.503Z,16.20
2023-03-29T15:57:38.093Z,16.70
2023-03-29T16:00:07.925Z,16.20
2023-03-29T16:02:40.172Z,16.20
2023-03-29T16:05:09.152Z,16.10
2023-03-29T16:07:36.787Z,16.00
2023-03-29T16:10:04.292Z,16.00
2023-03-29T16:12:31.555Z,15.90
2023-03-29T16:14:58.692Z,15.90
2023-03-29T16:17:26.037Z,15.90
2023-03-29T16:19:53.297Z,16.00
2023-03-29T16:22:20.505Z,16.00
2023-03-29T16:24:47.718Z,15.90
2023-03-29T16:27:14.901Z,16.00
2023-03-29T16:29:42.205Z,16.00
2023-03-29T16:32:11.025Z,16.00
2023-03-29T16:34:38.790Z,16.00
2023-03-29T16:37:06.313Z,16.00
2023-03-29T16:39:33.582Z,15.90
2023-03-29T16:42:00.933Z,15.90
2023-03-29T16:44:28.177Z,15.90
2023-03-29T16:46:57.861Z,16.00
2023-03-29T16:49:25.147Z,16.00
2023-03-29T16:51:53.373Z,16.00
2023-03-29T16:54:20.680Z,16.00
2023-03-29T16:56:48.169Z,16.00
2023-03-29T16:59:15.551Z,16.00
2023-03-29T17:01:42.993Z,16.00
2023-03-29T17:04:10.494Z,16.00
2023-03-29T17:06:37.997Z,16.00
2023-03-29T17:09:06.035Z,16.00
2023-03-29T17:11:34.478Z,16.10
2023-03-29T17:14:01.802Z,16.10
2023-03-29T17:16:29.323Z,16.10
2023-03-29T17:19:00.104Z,16.00
2023-03-29T17:21:28.836Z,16.10
2023-03-29T17:23:58.550Z,16.10
2023-03-29T17:26:26.122Z,16.10
2023-03-29T17:28:53.357Z,16.10
2023-03-29T17:31:20.613Z,16.10
2023-03-29T17:33:50.426Z,16.10
2023-03-29T17:36:19.148Z,16.10
2023-03-29T17:38:48.826Z,16.00
2023-03-29T17:41:16.551Z,16.00
2023-03-29T17:43:43.746Z,16.00
2023-03-29T17:46:11.485Z,16.00
2023-03-29T17:48:39.150Z,16.00
2023-03-29T17:51:06.684Z,16.00
2023-03-29T17:53:33.904Z,16.00
2023-03-29T17:56:01.229Z,16.00
2023-03-29T17:58:28.828Z,15.90
2023-03-29T18:00:56.138Z,15.90
2023-03-29T18:03:23.495Z,15.80
2023-03-29T18:05:51.094Z,15.80
2023-03-29T18:08:18.890Z,15.70
2023-03-29T18:10:46.392Z,15.70
2023-03-29T18:13:14.629Z,15.60
2023-03-29T18:15:42.395Z,15.60
2023-03-29T18:18:09.707Z,15.50
2023-03-29T18:20:37.177Z,15.50
2023-03-29T18:23:04.332Z,15.40
2023-03-29T18:25:31.540Z,15.40
2023-03-29T18:27:58.796Z,15.40
2023-03-29T18:30:26.149Z,15.40
2023-03-29T18:32:53.414Z,15.30
2023-03-29T18:35:20.915Z,15.30
2023-03-29T18:37:48.298Z,15.30
2023-03-29T18:40:19.654Z,15.30
2023-03-29T18:42:46.831Z,15.30
2023-03-29T18:45:14.107Z,15.20
2023-03-29T18:47:41.358Z,15.20
2023-03-29T18:50:09.302Z,15.20
2023-03-29T18:52:36.542Z,15.20
2023-03-29T18:55:05.092Z,15.20
2023-03-29T18:57:32.425Z,15.10
2023-03-29T19:00:00.015Z,15.10
2023-03-29T19:02:27.304Z,15.10
2023-03-29T19:04:54.655Z,15.10
2023-03-29T19:07:22.547Z,15.10
2023-03-29T19:09:49.889Z,15.10
2023-03-29T19:12:17.289Z,15.00
2023-03-29T19:14:44.545Z,15.10
2023-03-29T19:17:11.902Z,15.00
2023-03-29T19:19:39.402Z,15.00
2023-03-29T19:22:06.850Z,15.10
2023-03-29T19:24:34.028Z,15.00
2023-03-29T19:27:01.733Z,15.00
2023-03-29T19:29:29.163Z,15.00
2023-03-29T19:31:57.112Z,15.00
2023-03-29T19:34:24.729Z,15.00
2023-03-29T19:36:53.809Z,15.00
2023-03-29T19:39:21.653Z,15.00
2023-03-29T19:41:48.893Z,15.00
2023-03-29T19:44:16.115Z,15.00
2023-03-29T19:46:43.367Z,15.00
2023-03-29T19:49:13.454Z,15.00
2023-03-29T19:51:41.930Z,14.90
2023-03-29T19:54:11.290Z,14.90
2023-03-29T19:56:38.715Z,14.80
2023-03-29T19:59:06.170Z,14.80
2023-03-29T20:01:33.843Z,14.80
2023-03-29T20:04:02.437Z,14.80
2023-03-29T20:06:29.700Z,14.80
2023-03-29T20:08:57.643Z,14.80
2023-03-29T20:11:25.083Z,14.80
2023-03-29T20:13:52.423Z,14.80
2023-03-29T20:16:19.753Z,14.80
2023-03-29T20:18:46.915Z,14.80
2023-03-29T20:21:16.658Z,14.80
2023-03-29T20:23:44.655Z,14.80
2023-03-29T20:26:12.033Z,14.90
2023-03-29T20:28:39.387Z,14.90
2023-03-29T20:31:10.721Z,15.00
2023-03-29T20:33:39.179Z,14.90
2023-03-29T20:36:06.971Z,15.00
2023-03-29T20:38:35.320Z,15.00
2023-03-29T20:41:04.183Z,15.00
2023-03-29T20:43:37.421Z,15.10
2023-03-29T20:46:14.244Z,15.10
2023-03-29T20:48:54.131Z,15.10
2023-03-29T20:51:28.016Z,15.10
2023-03-29T20:54:02.115Z,15.10
2023-03-29T20:56:34.912Z,15.20
2023-03-29T20:59:03.939Z,15.20
2023-03-29T21:01:31.707Z,15.20
2023-03-29T21:03:59.161Z,15.20
2023-03-29T21:06:26.768Z,15.20
2023-03-29T21:08:54.013Z,15.20
2023-03-29T21:11:21.231Z,15.20
2023-03-29T21:13:48.493Z,15.10
2023-03-29T21:16:15.812Z,15.10
2023-03-29T21:18:43.679Z,15.10
2023-03-29T21:21:11.836Z,15.10
2023-03-29T21:23:39.456Z,15.00
2023-03-29T21:26:07.907Z,15.00
2023-03-29T21:28:35.714Z,15.00
2023-03-29T21:31:07.179Z,14.90
2023-03-29T21:33:35.473Z,14.90
2023-03-29T21:36:02.855Z,14.90
2023-03-29T21:38:30.649Z,14.90
2023-03-29T21:40:58.214Z,14.90
2023-03-29T21:43:25.725Z,14.90
2023-03-29T21:45:52.943Z,14.90
2023-03-29T21:48:20.309Z,15.00
2023-03-29T21:50:50.977Z,15.00
2023-03-29T21:53:18.449Z,15.00
2023-03-29T21:55:48.872Z,15.10
2023-03-29T21:58:16.337Z,15.10
2023-03-29T22:00:44.517Z,15.20
2023-03-29T22:03:12.217Z,15.30
2023-03-29T22:05:39.680Z,15.30
2023-03-29T22:08:10.275Z,15.40
2023-03-29T22:10:41.183Z,15.50
2023-03-29T22:13:09.188Z,15.50
2023-03-29T22:15:36.445Z,15.60
2023-03-29T22:18:05.149Z,15.60
2023-03-29T22:20:34.064Z,15.70
2023-03-29T22:23:01.371Z,15.70
2023-03-29T22:25:28.581Z,15.80
2023-03-29T22:27:58.313Z,15.80
2023-03-29T22:30:25.764Z,15.80
2023-03-29T22:32:53.036Z,15.80
2023-03-29T22:35:20.660Z,15.80
2023-03-29T22:37:47.870Z,15.80
2023-03-29T22:40:15.446Z,15.80
2023-03-29T22:42:42.609Z,15.80
2023-03-29T22:45:10.411Z,15.80
2023-03-29T22:47:37.717Z,15.80
2023-03-29T22:50:07.220Z,15.80
2023-03-29T22:52:34.576Z,15.80
2023-03-29T22:55:01.940Z,15.80
2023-03-29T22:57:29.289Z,15.80
2023-03-29T22:59:56.524Z,15.90
2023-03-29T23:02:24.036Z,15.90
2023-03-29T23:04:51.296Z,15.80
2023-03-29T23:07:18.605Z,15.80
2023-03-29T23:09:46.087Z,15.80
2023-03-29T23:12:13.338Z,15.80
2023-03-29T23:14:42.744Z,15.80
2023-03-29T23:17:10.347Z,15.80
2023-03-29T23:19:38.050Z,15.80
2023-03-29T23:22:05.340Z,15.80
2023-03-29T23:24:32.623Z,15.80
2023-03-29T23:27:01.128Z,15.70
2023-03-29T23:29:28.521Z,15.70
2023-03-29T23:31:56.869Z,15.80
2023-03-29T23:34:24.229Z,15.80
2023-03-29T23:36:51.472Z,15.80
2023-03-29T23:39:18.714Z,15.80
2023-03-29T23:41:45.895Z,15.80
2023-03-29T23:44:13.379Z,15.90
2023-03-29T23:46:41.905Z,15.90
2023-03-29T23:49:09.954Z,15.90
2023-03-29T23:51:39.056Z,16.00
2023-03-29T23:54:06.582Z,16.00
2023-03-29T23:56:34.135Z,16.10
2023-03-29T23:59:01.491Z,16.20
